sensor_id;sensor_type;location;lat;lon;timestamp;temperature;humidity
72380;SHT30;60354;47.798;12.472;2023-11-19T00:00:30;4.22;95.08
72380;SHT30;60354;47.798;12.472;2023-11-19T00:02:56;4.29;95.11
72380;SHT30;60354;47.798;12.472;2023-11-19T00:05:21;4.32;95.34
72380;SHT30;60354;47.798;12.472;2023-11-19T00:07:47;4.37;95.21
72380;SHT30;60354;47.798;12.472;2023-11-19T00:10:16;4.46;94.43
72380;SHT30;60354;47.798;12.472;2023-11-19T00:12:48;4.42;94.83
72380;SHT30;60354;47.798;12.472;2023-11-19T00:15:14;4.38;95.37
72380;SHT30;60354;47.798;12.472;2023-11-19T00:17:41;4.37;95.50
72380;SHT30;60354;47.798;12.472;2023-11-19T00:20:14;4.35;95.77
72380;SHT30;60354;47.798;12.472;2023-11-19T00:22:40;4.37;95.74
72380;SHT30;60354;47.798;12.472;2023-11-19T00:25:07;4.38;95.86
72380;SHT30;60354;47.798;12.472;2023-11-19T00:27:33;4.42;95.73
72380;SHT30;60354;47.798;12.472;2023-11-19T00:29:58;4.41;96.05
72380;SHT30;60354;47.798;12.472;2023-11-19T00:32:24;4.38;96.18
72380;SHT30;60354;47.798;12.472;2023-11-19T00:34:49;4.38;96.18
72380;SHT30;60354;47.798;12.472;2023-11-19T00:37:15;4.44;95.27
72380;SHT30;60354;47.798;12.472;2023-11-19T00:39:41;4.48;95.62
72380;SHT30;60354;47.798;12.472;2023-11-19T00:42:07;4.50;96.18
72380;SHT30;60354;47.798;12.472;2023-11-19T00:44:33;4.52;95.40
72380;SHT30;60354;47.798;12.472;2023-11-19T00:46:58;4.56;95.80
72380;SHT30;60354;47.798;12.472;2023-11-19T00:49:25;4.60;95.58
72380;SHT30;60354;47.798;12.472;2023-11-19T00:51:50;4.58;95.03
72380;SHT30;60354;47.798;12.472;2023-11-19T00:54:16;4.58;95.40
72380;SHT30;60354;47.798;12.472;2023-11-19T00:56:41;4.62;95.10
72380;SHT30;60354;47.798;12.472;2023-11-19T00:59:07;4.65;94.73
72380;SHT30;60354;47.798;12.472;2023-11-19T01:01:33;4.63;95.10
72380;SHT30;60354;47.798;12.472;2023-11-19T01:03:58;4.66;95.21
72380;SHT30;60354;47.798;12.472;2023-11-19T01:06:33;4.65;94.70
72380;SHT30;60354;47.798;12.472;2023-11-19T01:08:59;4.68;94.62
72380;SHT30;60354;47.798;12.472;2023-11-19T01:11:25;4.70;94.76
72380;SHT30;60354;47.798;12.472;2023-11-19T01:13:51;4.66;95.04
72380;SHT30;60354;47.798;12.472;2023-11-19T01:16:17;4.70;94.74
72380;SHT30;60354;47.798;12.472;2023-11-19T01:18:44;4.73;94.94
72380;SHT30;60354;47.798;12.472;2023-11-19T01:21:10;4.70;94.86
72380;SHT30;60354;47.798;12.472;2023-11-19T01:23:35;4.75;94.83
72380;SHT30;60354;47.798;12.472;2023-11-19T01:26:02;4.75;94.91
72380;SHT30;60354;47.798;12.472;2023-11-19T01:28:28;4.79;94.51
72380;SHT30;60354;47.798;12.472;2023-11-19T01:30:54;4.76;94.53
72380;SHT30;60354;47.798;12.472;2023-11-19T01:33:19;4.80;94.82
72380;SHT30;60354;47.798;12.472;2023-11-19T01:35:44;4.79;94.77
72380;SHT30;60354;47.798;12.472;2023-11-19T01:38:10;4.81;94.77
72380;SHT30;60354;47.798;12.472;2023-11-19T01:40:36;4.83;94.88
72380;SHT30;60354;47.798;12.472;2023-11-19T01:43:03;4.86;94.11
72380;SHT30;60354;47.798;12.472;2023-11-19T01:45:30;4.84;94.17
72380;SHT30;60354;47.798;12.472;2023-11-19T01:48:02;4.90;94.28
72380;SHT30;60354;47.798;12.472;2023-11-19T01:50:32;4.91;94.26
72380;SHT30;60354;47.798;12.472;2023-11-19T01:52:58;4.93;94.66
72380;SHT30;60354;47.798;12.472;2023-11-19T01:55:24;4.94;94.39
72380;SHT30;60354;47.798;12.472;2023-11-19T01:57:53;4.97;94.18
72380;SHT30;60354;47.798;12.472;2023-11-19T02:00:19;5.03;94.18
72380;SHT30;60354;47.798;12.472;2023-11-19T02:02:46;5.03;94.37
72380;SHT30;60354;47.798;12.472;2023-11-19T02:05:13;5.07;94.43
72380;SHT30;60354;47.798;12.472;2023-11-19T02:07:39;5.11;93.82
72380;SHT30;60354;47.798;12.472;2023-11-19T02:10:05;5.06;94.25
72380;SHT30;60354;47.798;12.472;2023-11-19T02:12:31;5.00;94.08
72380;SHT30;60354;47.798;12.472;2023-11-19T02:15:02;5.00;94.54
72380;SHT30;60354;47.798;12.472;2023-11-19T02:17:31;5.00;95.02
72380;SHT30;60354;47.798;12.472;2023-11-19T02:19:57;5.04;94.70
72380;SHT30;60354;47.798;12.472;2023-11-19T02:22:26;5.07;93.83
72380;SHT30;60354;47.798;12.472;2023-11-19T02:24:55;5.11;93.96
72380;SHT30;60354;47.798;12.472;2023-11-19T02:30:14;5.17;93.95
72380;SHT30;60354;47.798;12.472;2023-11-19T02:32:41;5.13;94.21
72380;SHT30;60354;47.798;12.472;2023-11-19T02:35:07;5.17;94.27
72380;SHT30;60354;47.798;12.472;2023-11-19T02:37:38;5.13;93.96
72380;SHT30;60354;47.798;12.472;2023-11-19T02:40:04;5.04;94.72
72380;SHT30;60354;47.798;12.472;2023-11-19T02:42:30;5.07;93.80
72380;SHT30;60354;47.798;12.472;2023-11-19T02:44:57;5.10;94.09
72380;SHT30;60354;47.798;12.472;2023-11-19T02:47:22;5.09;94.88
72380;SHT30;60354;47.798;12.472;2023-11-19T02:49:49;5.11;94.59
72380;SHT30;60354;47.798;12.472;2023-11-19T02:52:15;5.17;94.87
72380;SHT30;60354;47.798;12.472;2023-11-19T02:54:43;5.13;94.77
72380;SHT30;60354;47.798;12.472;2023-11-19T02:57:08;5.17;94.69
72380;SHT30;60354;47.798;12.472;2023-11-19T02:59:38;5.11;94.98
72380;SHT30;60354;47.798;12.472;2023-11-19T03:02:05;5.14;95.00
72380;SHT30;60354;47.798;12.472;2023-11-19T03:04:41;5.19;95.23
72380;SHT30;60354;47.798;12.472;2023-11-19T03:07:09;5.19;95.40
72380;SHT30;60354;47.798;12.472;2023-11-19T03:09:34;5.21;95.28
72380;SHT30;60354;47.798;12.472;2023-11-19T03:12:01;5.24;95.25
72380;SHT30;60354;47.798;12.472;2023-11-19T03:14:26;5.21;95.37
72380;SHT30;60354;47.798;12.472;2023-11-19T03:16:52;5.23;95.76
72380;SHT30;60354;47.798;12.472;2023-11-19T03:19:17;5.28;95.79
72380;SHT30;60354;47.798;12.472;2023-11-19T03:21:43;5.34;95.87
72380;SHT30;60354;47.798;12.472;2023-11-19T03:24:10;5.35;96.01
72380;SHT30;60354;47.798;12.472;2023-11-19T03:26:35;5.45;96.73
72380;SHT30;60354;47.798;12.472;2023-11-19T03:29:02;5.73;98.19
72380;SHT30;60354;47.798;12.472;2023-11-19T03:31:28;5.89;98.00
72380;SHT30;60354;47.798;12.472;2023-11-19T03:33:54;5.95;97.49
72380;SHT30;60354;47.798;12.472;2023-11-19T03:36:20;6.02;97.32
72380;SHT30;60354;47.798;12.472;2023-11-19T03:38:45;5.93;96.49
72380;SHT30;60354;47.798;12.472;2023-11-19T03:41:15;5.92;96.05
72380;SHT30;60354;47.798;12.472;2023-11-19T03:43:41;5.88;96.28
72380;SHT30;60354;47.798;12.472;2023-11-19T03:46:19;5.83;96.23
72380;SHT30;60354;47.798;12.472;2023-11-19T03:48:47;5.76;95.77
72380;SHT30;60354;47.798;12.472;2023-11-19T03:51:13;5.71;95.93
72380;SHT30;60354;47.798;12.472;2023-11-19T03:53:44;5.68;96.21
72380;SHT30;60354;47.798;12.472;2023-11-19T03:56:10;5.69;96.05
72380;SHT30;60354;47.798;12.472;2023-11-19T03:58:36;5.62;96.48
72380;SHT30;60354;47.798;12.472;2023-11-19T04:01:04;5.59;96.86
72380;SHT30;60354;47.798;12.472;2023-11-19T04:03:30;5.62;96.53
72380;SHT30;60354;47.798;12.472;2023-11-19T04:05:55;5.68;96.02
72380;SHT30;60354;47.798;12.472;2023-11-19T04:08:21;5.68;96.11
72380;SHT30;60354;47.798;12.472;2023-11-19T04:10:47;5.71;96.05
72380;SHT30;60354;47.798;12.472;2023-11-19T04:13:13;5.72;96.55
72380;SHT30;60354;47.798;12.472;2023-11-19T04:15:39;5.76;96.54
72380;SHT30;60354;47.798;12.472;2023-11-19T04:18:04;5.85;96.28
72380;SHT30;60354;47.798;12.472;2023-11-19T04:20:30;5.89;95.97
72380;SHT30;60354;47.798;12.472;2023-11-19T04:22:57;5.92;96.34
72380;SHT30;60354;47.798;12.472;2023-11-19T04:25:22;5.90;96.20
72380;SHT30;60354;47.798;12.472;2023-11-19T04:27:50;5.89;96.38
72380;SHT30;60354;47.798;12.472;2023-11-19T04:30:15;5.92;96.48
72380;SHT30;60354;47.798;12.472;2023-11-19T04:32:42;5.89;96.33
72380;SHT30;60354;47.798;12.472;2023-11-19T04:35:07;5.89;96.06
72380;SHT30;60354;47.798;12.472;2023-11-19T04:37:33;5.96;96.04
72380;SHT30;60354;47.798;12.472;2023-11-19T04:39:59;6.00;95.67
72380;SHT30;60354;47.798;12.472;2023-11-19T04:42:25;6.06;95.86
72380;SHT30;60354;47.798;12.472;2023-11-19T04:44:51;6.20;95.16
72380;SHT30;60354;47.798;12.472;2023-11-19T04:47:16;6.27;95.45
72380;SHT30;60354;47.798;12.472;2023-11-19T04:49:42;6.33;95.22
72380;SHT30;60354;47.798;12.472;2023-11-19T04:52:08;6.26;95.00
72380;SHT30;60354;47.798;12.472;2023-11-19T04:54:34;6.23;95.30
72380;SHT30;60354;47.798;12.472;2023-11-19T04:56:59;6.31;95.45
72380;SHT30;60354;47.798;12.472;2023-11-19T04:59:25;6.40;95.62
72380;SHT30;60354;47.798;12.472;2023-11-19T05:01:50;6.34;95.35
72380;SHT30;60354;47.798;12.472;2023-11-19T05:04:16;6.37;94.96
72380;SHT30;60354;47.798;12.472;2023-11-19T05:06:44;6.40;95.28
72380;SHT30;60354;47.798;12.472;2023-11-19T05:09:09;6.38;95.86
72380;SHT30;60354;47.798;12.472;2023-11-19T05:11:37;6.41;96.17
72380;SHT30;60354;47.798;12.472;2023-11-19T05:14:04;6.41;96.59
72380;SHT30;60354;47.798;12.472;2023-11-19T05:16:29;6.41;96.60
72380;SHT30;60354;47.798;12.472;2023-11-19T05:18:55;6.43;96.76
72380;SHT30;60354;47.798;12.472;2023-11-19T05:21:20;6.40;96.77
72380;SHT30;60354;47.798;12.472;2023-11-19T05:23:46;6.40;96.74
72380;SHT30;60354;47.798;12.472;2023-11-19T05:26:20;6.43;97.07
72380;SHT30;60354;47.798;12.472;2023-11-19T05:28:47;6.43;97.27
72380;SHT30;60354;47.798;12.472;2023-11-19T05:31:12;6.44;97.20
72380;SHT30;60354;47.798;12.472;2023-11-19T05:33:38;6.44;97.23
72380;SHT30;60354;47.798;12.472;2023-11-19T05:36:04;6.43;97.37
72380;SHT30;60354;47.798;12.472;2023-11-19T05:38:30;6.44;97.41
72380;SHT30;60354;47.798;12.472;2023-11-19T05:40:55;6.47;97.27
72380;SHT30;60354;47.798;12.472;2023-11-19T05:43:21;6.51;97.41
72380;SHT30;60354;47.798;12.472;2023-11-19T05:45:46;6.54;97.57
72380;SHT30;60354;47.798;12.472;2023-11-19T05:48:12;6.57;98.03
72380;SHT30;60354;47.798;12.472;2023-11-19T05:50:38;6.64;97.92
72380;SHT30;60354;47.798;12.472;2023-11-19T05:53:04;6.71;97.95
72380;SHT30;60354;47.798;12.472;2023-11-19T05:55:34;6.74;97.97
72380;SHT30;60354;47.798;12.472;2023-11-19T05:58:01;6.74;97.75
72380;SHT30;60354;47.798;12.472;2023-11-19T06:00:27;6.68;97.59
72380;SHT30;60354;47.798;12.472;2023-11-19T06:02:52;6.68;97.63
72380;SHT30;60354;47.798;12.472;2023-11-19T06:05:18;6.70;97.66
72380;SHT30;60354;47.798;12.472;2023-11-19T06:07:43;6.70;97.96
72380;SHT30;60354;47.798;12.472;2023-11-19T06:10:09;6.78;98.56
72380;SHT30;60354;47.798;12.472;2023-11-19T06:12:36;6.82;98.04
72380;SHT30;60354;47.798;12.472;2023-11-19T06:15:07;6.81;97.83
72380;SHT30;60354;47.798;12.472;2023-11-19T06:17:34;6.84;97.89
72380;SHT30;60354;47.798;12.472;2023-11-19T06:19:59;6.88;98.19
72380;SHT30;60354;47.798;12.472;2023-11-19T06:22:25;6.95;98.28
72380;SHT30;60354;47.798;12.472;2023-11-19T06:24:50;6.95;97.67
72380;SHT30;60354;47.798;12.472;2023-11-19T06:27:16;7.05;98.29
72380;SHT30;60354;47.798;12.472;2023-11-19T06:29:41;7.15;98.34
72380;SHT30;60354;47.798;12.472;2023-11-19T06:32:07;7.22;98.51
72380;SHT30;60354;47.798;12.472;2023-11-19T06:34:34;7.16;97.44
72380;SHT30;60354;47.798;12.472;2023-11-19T06:36:59;7.16;97.30
72380;SHT30;60354;47.798;12.472;2023-11-19T06:39:25;7.18;98.00
72380;SHT30;60354;47.798;12.472;2023-11-19T06:41:51;7.18;97.68
72380;SHT30;60354;47.798;12.472;2023-11-19T06:44:17;7.16;97.87
72380;SHT30;60354;47.798;12.472;2023-11-19T06:46:43;7.15;97.61
72380;SHT30;60354;47.798;12.472;2023-11-19T06:49:08;7.13;97.54
72380;SHT30;60354;47.798;12.472;2023-11-19T06:51:34;7.16;97.50
72380;SHT30;60354;47.798;12.472;2023-11-19T06:54:00;7.12;97.43
72380;SHT30;60354;47.798;12.472;2023-11-19T06:56:25;7.22;98.10
72380;SHT30;60354;47.798;12.472;2023-11-19T06:58:51;7.27;98.54
72380;SHT30;60354;47.798;12.472;2023-11-19T07:01:17;7.42;99.51
72380;SHT30;60354;47.798;12.472;2023-11-19T07:03:46;7.59;99.99
72380;SHT30;60354;47.798;12.472;2023-11-19T07:06:12;7.56;98.90
72380;SHT30;60354;47.798;12.472;2023-11-19T07:08:44;7.56;99.36
72380;SHT30;60354;47.798;12.472;2023-11-19T07:11:13;7.57;99.43
72380;SHT30;60354;47.798;12.472;2023-11-19T07:13:42;7.67;99.95
72380;SHT30;60354;47.798;12.472;2023-11-19T07:16:08;7.69;99.66
72380;SHT30;60354;47.798;12.472;2023-11-19T07:18:35;7.66;98.11
72380;SHT30;60354;47.798;12.472;2023-11-19T07:21:01;7.57;98.12
72380;SHT30;60354;47.798;12.472;2023-11-19T07:23:28;7.77;99.36
72380;SHT30;60354;47.798;12.472;2023-11-19T07:25:53;7.71;98.14
72380;SHT30;60354;47.798;12.472;2023-11-19T07:28:19;7.46;96.51
72380;SHT30;60354;47.798;12.472;2023-11-19T07:30:44;7.37;96.65
72380;SHT30;60354;47.798;12.472;2023-11-19T07:33:10;7.43;96.27
72380;SHT30;60354;47.798;12.472;2023-11-19T07:35:35;7.44;97.17
72380;SHT30;60354;47.798;12.472;2023-11-19T07:38:01;7.46;97.00
72380;SHT30;60354;47.798;12.472;2023-11-19T07:40:26;7.43;96.88
72380;SHT30;60354;47.798;12.472;2023-11-19T07:42:52;7.42;97.22
72380;SHT30;60354;47.798;12.472;2023-11-19T07:45:17;7.46;97.33
72380;SHT30;60354;47.798;12.472;2023-11-19T07:47:43;7.44;97.60
72380;SHT30;60354;47.798;12.472;2023-11-19T07:50:10;7.44;96.84
72380;SHT30;60354;47.798;12.472;2023-11-19T07:52:36;7.42;96.37
72380;SHT30;60354;47.798;12.472;2023-11-19T07:55:02;7.42;96.46
72380;SHT30;60354;47.798;12.472;2023-11-19T07:57:27;7.53;96.82
72380;SHT30;60354;47.798;12.472;2023-11-19T07:59:59;7.54;96.38
72380;SHT30;60354;47.798;12.472;2023-11-19T08:02:26;7.44;95.86
72380;SHT30;60354;47.798;12.472;2023-11-19T08:04:52;7.37;95.79
72380;SHT30;60354;47.798;12.472;2023-11-19T08:07:18;7.42;96.43
72380;SHT30;60354;47.798;12.472;2023-11-19T08:09:44;7.56;96.71
72380;SHT30;60354;47.798;12.472;2023-11-19T08:12:10;7.66;97.21
72380;SHT30;60354;47.798;12.472;2023-11-19T08:14:36;7.67;96.35
72380;SHT30;60354;47.798;12.472;2023-11-19T08:17:02;7.57;95.79
72380;SHT30;60354;47.798;12.472;2023-11-19T08:19:28;7.57;96.73
72380;SHT30;60354;47.798;12.472;2023-11-19T08:21:53;7.74;96.79
72380;SHT30;60354;47.798;12.472;2023-11-19T08:24:19;7.71;95.87
72380;SHT30;60354;47.798;12.472;2023-11-19T08:26:44;7.70;95.07
72380;SHT30;60354;47.798;12.472;2023-11-19T08:29:10;7.63;95.12
72380;SHT30;60354;47.798;12.472;2023-11-19T08:31:35;7.75;95.19
72380;SHT30;60354;47.798;12.472;2023-11-19T08:34:01;7.78;95.69
72380;SHT30;60354;47.798;12.472;2023-11-19T08:36:26;7.81;95.43
72380;SHT30;60354;47.798;12.472;2023-11-19T08:38:53;7.80;95.77
72380;SHT30;60354;47.798;12.472;2023-11-19T08:41:19;7.80;96.38
72380;SHT30;60354;47.798;12.472;2023-11-19T08:43:45;7.81;95.16
72380;SHT30;60354;47.798;12.472;2023-11-19T08:46:11;7.78;95.03
72380;SHT30;60354;47.798;12.472;2023-11-19T08:48:37;7.88;94.50
72380;SHT30;60354;47.798;12.472;2023-11-19T08:51:02;7.95;95.52
72380;SHT30;60354;47.798;12.472;2023-11-19T08:53:29;7.97;94.24
72380;SHT30;60354;47.798;12.472;2023-11-19T08:55:55;7.91;95.04
72380;SHT30;60354;47.798;12.472;2023-11-19T08:58:20;7.98;95.11
72380;SHT30;60354;47.798;12.472;2023-11-19T09:00:46;7.95;95.03
72380;SHT30;60354;47.798;12.472;2023-11-19T09:03:12;8.02;94.91
72380;SHT30;60354;47.798;12.472;2023-11-19T09:05:37;8.09;95.68
72380;SHT30;60354;47.798;12.472;2023-11-19T09:08:04;8.09;95.22
72380;SHT30;60354;47.798;12.472;2023-11-19T09:10:29;8.09;95.24
72380;SHT30;60354;47.798;12.472;2023-11-19T09:12:55;8.06;95.34
72380;SHT30;60354;47.798;12.472;2023-11-19T09:15:20;8.06;95.44
72380;SHT30;60354;47.798;12.472;2023-11-19T09:17:46;8.01;95.18
72380;SHT30;60354;47.798;12.472;2023-11-19T09:20:11;8.04;95.01
72380;SHT30;60354;47.798;12.472;2023-11-19T09:22:40;8.05;95.67
72380;SHT30;60354;47.798;12.472;2023-11-19T09:25:05;8.06;95.87
72380;SHT30;60354;47.798;12.472;2023-11-19T09:27:31;8.11;96.08
72380;SHT30;60354;47.798;12.472;2023-11-19T09:29:56;8.04;95.32
72380;SHT30;60354;47.798;12.472;2023-11-19T09:32:24;8.04;95.93
72380;SHT30;60354;47.798;12.472;2023-11-19T09:34:50;8.08;95.29
72380;SHT30;60354;47.798;12.472;2023-11-19T09:37:16;8.06;95.84
72380;SHT30;60354;47.798;12.472;2023-11-19T09:39:41;8.05;95.15
72380;SHT30;60354;47.798;12.472;2023-11-19T09:42:09;8.09;95.26
72380;SHT30;60354;47.798;12.472;2023-11-19T09:44:37;8.14;95.54
72380;SHT30;60354;47.798;12.472;2023-11-19T09:47:04;8.35;94.53
72380;SHT30;60354;47.798;12.472;2023-11-19T09:49:30;8.32;94.47
72380;SHT30;60354;47.798;12.472;2023-11-19T09:51:55;8.36;95.03
72380;SHT30;60354;47.798;12.472;2023-11-19T09:54:21;8.41;94.61
72380;SHT30;60354;47.798;12.472;2023-11-19T09:56:47;8.45;94.79
72380;SHT30;60354;47.798;12.472;2023-11-19T09:59:13;8.45;93.73
72380;SHT30;60354;47.798;12.472;2023-11-19T10:01:39;8.39;94.21
72380;SHT30;60354;47.798;12.472;2023-11-19T10:04:06;8.45;94.78
72380;SHT30;60354;47.798;12.472;2023-11-19T10:06:32;8.55;94.07
72380;SHT30;60354;47.798;12.472;2023-11-19T10:08:57;8.73;92.86
72380;SHT30;60354;47.798;12.472;2023-11-19T10:11:24;8.72;93.38
72380;SHT30;60354;47.798;12.472;2023-11-19T10:13:52;8.72;93.99
72380;SHT30;60354;47.798;12.472;2023-11-19T10:16:18;8.76;93.19
72380;SHT30;60354;47.798;12.472;2023-11-19T10:18:48;8.74;93.94
72380;SHT30;60354;47.798;12.472;2023-11-19T10:21:17;8.88;94.66
72380;SHT30;60354;47.798;12.472;2023-11-19T10:23:50;9.20;95.13
72380;SHT30;60354;47.798;12.472;2023-11-19T10:26:17;9.25;93.98
72380;SHT30;60354;47.798;12.472;2023-11-19T10:28:42;9.38;95.71
72380;SHT30;60354;47.798;12.472;2023-11-19T10:31:11;9.59;95.18
72380;SHT30;60354;47.798;12.472;2023-11-19T10:33:37;9.59;93.11
72380;SHT30;60354;47.798;12.472;2023-11-19T10:36:02;9.71;94.46
72380;SHT30;60354;47.798;12.472;2023-11-19T10:38:28;9.66;91.79
72380;SHT30;60354;47.798;12.472;2023-11-19T10:40:54;9.65;92.96
72380;SHT30;60354;47.798;12.472;2023-11-19T10:43:20;9.72;92.50
72380;SHT30;60354;47.798;12.472;2023-11-19T10:45:49;9.86;92.24
72380;SHT30;60354;47.798;12.472;2023-11-19T10:48:15;9.78;92.42
72380;SHT30;60354;47.798;12.472;2023-11-19T10:50:42;9.74;91.87
72380;SHT30;60354;47.798;12.472;2023-11-19T10:53:10;9.81;91.33
72380;SHT30;60354;47.798;12.472;2023-11-19T10:55:38;9.78;90.39
72380;SHT30;60354;47.798;12.472;2023-11-19T10:58:05;9.87;91.34
72380;SHT30;60354;47.798;12.472;2023-11-19T11:00:45;10.12;91.73
72380;SHT30;60354;47.798;12.472;2023-11-19T11:03:17;10.41;91.72
72380;SHT30;60354;47.798;12.472;2023-11-19T11:05:43;11.30;91.66
72380;SHT30;60354;47.798;12.472;2023-11-19T11:08:09;11.97;88.77
72380;SHT30;60354;47.798;12.472;2023-11-19T11:10:39;12.24;88.63
72380;SHT30;60354;47.798;12.472;2023-11-19T11:13:07;12.42;87.66
72380;SHT30;60354;47.798;12.472;2023-11-19T11:15:34;12.70;86.53
72380;SHT30;60354;47.798;12.472;2023-11-19T11:18:01;12.83;87.34
72380;SHT30;60354;47.798;12.472;2023-11-19T11:20:31;12.86;86.79
72380;SHT30;60354;47.798;12.472;2023-11-19T11:23:25;12.92;85.23
72380;SHT30;60354;47.798;12.472;2023-11-19T11:28:35;13.03;85.33
72380;SHT30;60354;47.798;12.472;2023-11-19T11:36:46;12.97;84.93
72380;SHT30;60354;47.798;12.472;2023-11-19T11:39:15;13.14;83.98
72380;SHT30;60354;47.798;12.472;2023-11-19T11:41:41;13.20;84.52
72380;SHT30;60354;47.798;12.472;2023-11-19T11:44:07;13.26;83.94
72380;SHT30;60354;47.798;12.472;2023-11-19T11:49:08;13.44;82.88
72380;SHT30;60354;47.798;12.472;2023-11-19T11:54:30;13.40;83.07
72380;SHT30;60354;47.798;12.472;2023-11-19T11:57:12;13.33;82.74
72380;SHT30;60354;47.798;12.472;2023-11-19T12:02:08;13.40;81.70
72380;SHT30;60354;47.798;12.472;2023-11-19T12:04:35;13.37;81.92
72380;SHT30;60354;47.798;12.472;2023-11-19T12:07:07;13.35;81.82
72380;SHT30;60354;47.798;12.472;2023-11-19T12:09:33;13.37;81.19
72380;SHT30;60354;47.798;12.472;2023-11-19T12:12:17;13.48;81.89
72380;SHT30;60354;47.798;12.472;2023-11-19T12:20:03;13.71;80.41
72380;SHT30;60354;47.798;12.472;2023-11-19T12:22:31;13.61;80.31
72380;SHT30;60354;47.798;12.472;2023-11-19T12:24:56;13.59;80.79
72380;SHT30;60354;47.798;12.472;2023-11-19T12:27:22;13.43;81.25
72380;SHT30;60354;47.798;12.472;2023-11-19T12:29:49;13.34;81.52
72380;SHT30;60354;47.798;12.472;2023-11-19T12:32:15;13.35;81.95
72380;SHT30;60354;47.798;12.472;2023-11-19T12:34:40;13.43;80.38
72380;SHT30;60354;47.798;12.472;2023-11-19T12:37:06;13.50;80.79
72380;SHT30;60354;47.798;12.472;2023-11-19T12:39:32;13.64;80.49
72380;SHT30;60354;47.798;12.472;2023-11-19T12:41:57;13.64;80.36
72380;SHT30;60354;47.798;12.472;2023-11-19T12:44:26;13.75;78.43
72380;SHT30;60354;47.798;12.472;2023-11-19T12:49:29;13.76;78.40
72380;SHT30;60354;47.798;12.472;2023-11-19T12:51:54;13.81;78.61
72380;SHT30;60354;47.798;12.472;2023-11-19T12:54:20;13.69;77.91
72380;SHT30;60354;47.798;12.472;2023-11-19T12:56:55;13.83;77.31
72380;SHT30;60354;47.798;12.472;2023-11-19T12:59:20;13.74;77.43
72380;SHT30;60354;47.798;12.472;2023-11-19T13:01:58;13.72;76.30
72380;SHT30;60354;47.798;12.472;2023-11-19T13:04:28;13.94;74.81
72380;SHT30;60354;47.798;12.472;2023-11-19T13:06:59;13.94;75.47
72380;SHT30;60354;47.798;12.472;2023-11-19T13:09:28;14.05;73.05
72380;SHT30;60354;47.798;12.472;2023-11-19T13:11:55;14.19;72.53
72380;SHT30;60354;47.798;12.472;2023-11-19T13:14:22;14.23;72.96
72380;SHT30;60354;47.798;12.472;2023-11-19T13:16:47;14.10;72.85
72380;SHT30;60354;47.798;12.472;2023-11-19T13:19:16;13.99;74.26
72380;SHT30;60354;47.798;12.472;2023-11-19T13:21:44;13.90;73.79
72380;SHT30;60354;47.798;12.472;2023-11-19T13:24:12;13.81;73.50
72380;SHT30;60354;47.798;12.472;2023-11-19T13:26:38;13.88;72.48
72380;SHT30;60354;47.798;12.472;2023-11-19T13:29:04;13.79;73.69
72380;SHT30;60354;47.798;12.472;2023-11-19T13:31:30;13.69;74.06
72380;SHT30;60354;47.798;12.472;2023-11-19T13:33:55;13.76;74.25
72380;SHT30;60354;47.798;12.472;2023-11-19T13:36:22;13.72;74.20
72380;SHT30;60354;47.798;12.472;2023-11-19T13:38:47;13.72;74.59
72380;SHT30;60354;47.798;12.472;2023-11-19T13:41:13;13.68;75.73
72380;SHT30;60354;47.798;12.472;2023-11-19T13:43:39;13.64;75.69
72380;SHT30;60354;47.798;12.472;2023-11-19T13:46:05;13.62;75.50
72380;SHT30;60354;47.798;12.472;2023-11-19T13:48:30;13.58;75.86
72380;SHT30;60354;47.798;12.472;2023-11-19T13:50:56;13.50;76.35
72380;SHT30;60354;47.798;12.472;2023-11-19T13:53:22;13.47;76.55
72380;SHT30;60354;47.798;12.472;2023-11-19T13:55:51;13.38;77.26
72380;SHT30;60354;47.798;12.472;2023-11-19T13:58:16;13.30;77.69
72380;SHT30;60354;47.798;12.472;2023-11-19T14:00:42;13.33;77.67
72380;SHT30;60354;47.798;12.472;2023-11-19T14:03:09;13.10;78.95
72380;SHT30;60354;47.798;12.472;2023-11-19T14:08:28;13.06;79.07
72380;SHT30;60354;47.798;12.472;2023-11-19T14:10:54;13.00;79.45
72380;SHT30;60354;47.798;12.472;2023-11-19T14:13:21;12.99;79.72
72380;SHT30;60354;47.798;12.472;2023-11-19T14:15:47;12.99;79.81
72380;SHT30;60354;47.798;12.472;2023-11-19T14:18:14;13.07;79.68
72380;SHT30;60354;47.798;12.472;2023-11-19T14:20:39;13.10;79.82
72380;SHT30;60354;47.798;12.472;2023-11-19T14:23:05;13.13;79.95
72380;SHT30;60354;47.798;12.472;2023-11-19T14:25:30;13.17;79.89
72380;SHT30;60354;47.798;12.472;2023-11-19T14:27:56;13.14;80.25
72380;SHT30;60354;47.798;12.472;2023-11-19T14:30:21;13.10;80.62
72380;SHT30;60354;47.798;12.472;2023-11-19T14:32:47;13.08;80.88
72380;SHT30;60354;47.798;12.472;2023-11-19T14:35:13;13.16;80.37
72380;SHT30;60354;47.798;12.472;2023-11-19T14:37:39;13.23;80.69
72380;SHT30;60354;47.798;12.472;2023-11-19T14:40:05;13.24;80.47
72380;SHT30;60354;47.798;12.472;2023-11-19T14:42:37;13.16;80.65
72380;SHT30;60354;47.798;12.472;2023-11-19T14:45:05;13.16;80.38
72380;SHT30;60354;47.798;12.472;2023-11-19T14:47:30;13.11;80.71
72380;SHT30;60354;47.798;12.472;2023-11-19T14:49:56;13.06;80.79
72380;SHT30;60354;47.798;12.472;2023-11-19T14:52:22;12.95;81.12
72380;SHT30;60354;47.798;12.472;2023-11-19T14:54:47;12.90;80.90
72380;SHT30;60354;47.798;12.472;2023-11-19T14:57:13;12.96;80.22
72380;SHT30;60354;47.798;12.472;2023-11-19T14:59:39;12.99;79.69
72380;SHT30;60354;47.798;12.472;2023-11-19T15:02:05;12.99;79.65
72380;SHT30;60354;47.798;12.472;2023-11-19T15:04:31;12.95;79.49
72380;SHT30;60354;47.798;12.472;2023-11-19T15:06:57;13.07;78.03
72380;SHT30;60354;47.798;12.472;2023-11-19T15:09:23;12.96;78.72
72380;SHT30;60354;47.798;12.472;2023-11-19T15:11:48;12.97;77.89
72380;SHT30;60354;47.798;12.472;2023-11-19T15:14:15;12.92;78.27
72380;SHT30;60354;47.798;12.472;2023-11-19T15:16:42;12.96;77.21
72380;SHT30;60354;47.798;12.472;2023-11-19T15:19:08;12.92;77.26
72380;SHT30;60354;47.798;12.472;2023-11-19T15:21:34;12.92;76.42
72380;SHT30;60354;47.798;12.472;2023-11-19T15:24:00;12.85;76.90
72380;SHT30;60354;47.798;12.472;2023-11-19T15:26:26;12.87;76.41
72380;SHT30;60354;47.798;12.472;2023-11-19T15:28:51;12.87;75.86
72380;SHT30;60354;47.798;12.472;2023-11-19T15:31:22;12.77;76.74
72380;SHT30;60354;47.798;12.472;2023-11-19T15:33:47;12.80;76.06
72380;SHT30;60354;47.798;12.472;2023-11-19T15:36:13;12.67;76.93
72380;SHT30;60354;47.798;12.472;2023-11-19T15:38:40;12.66;76.42
72380;SHT30;60354;47.798;12.472;2023-11-19T15:41:05;12.53;77.24
72380;SHT30;60354;47.798;12.472;2023-11-19T15:43:33;12.52;76.89
72380;SHT30;60354;47.798;12.472;2023-11-19T15:45:58;12.53;75.92
72380;SHT30;60354;47.798;12.472;2023-11-19T15:48:24;12.49;75.36
72380;SHT30;60354;47.798;12.472;2023-11-19T15:50:51;12.48;75.10
72380;SHT30;60354;47.798;12.472;2023-11-19T15:53:17;12.55;74.53